sensor_id;sensor_type;location;lat;lon;timestamp;pressure;altitude;pressure_sealevel;temperature;humidity
68634;BME280;55625;47.072;22.192;2023-05-02T00:00:44;99908.22;;;11.64;81.14
68634;BME280;55625;47.072;22.192;2023-05-02T00:03:10;99908.31;;;11.60;80.94
68634;BME280;55625;47.072;22.192;2023-05-02T00:05:37;99905.59;;;11.57;81.23
68634;BME280;55625;47.072;22.192;2023-05-02T00:08:03;99909.34;;;11.54;81.02
68634;BME280;55625;47.072;22.192;2023-05-02T00:10:29;99903.00;;;11.49;80.59
68634;BME280;55625;47.072;22.192;2023-05-02T00:12:55;99910.38;;;11.60;79.06
68634;BME280;55625;47.072;22.192;2023-05-02T00:15:21;99912.75;;;11.61;79.51
68634;BME280;55625;47.072;22.192;2023-05-02T00:17:47;99922.06;;;11.62;78.46
68634;BME280;55625;47.072;22.192;2023-05-02T00:20:13;99916.75;;;11.64;78.44
68634;BME280;55625;47.072;22.192;2023-05-02T00:22:39;99913.91;;;11.64;79.10
68634;BME280;55625;47.072;22.192;2023-05-02T00:25:06;99918.34;;;11.65;80.03
68634;BME280;55625;47.072;22.192;2023-05-02T00:27:32;99919.03;;;11.69;80.94
68634;BME280;55625;47.072;22.192;2023-05-02T00:29:58;99919.16;;;11.65;81.31
68634;BME280;55625;47.072;22.192;2023-05-02T00:32:25;99922.66;;;11.69;81.56
68634;BME280;55625;47.072;22.192;2023-05-02T00:34:52;99923.78;;;11.72;81.60
68634;BME280;55625;47.072;22.192;2023-05-02T00:37:18;99933.00;;;11.76;80.92
68634;BME280;55625;47.072;22.192;2023-05-02T00:39:44;99930.06;;;11.79;81.07
68634;BME280;55625;47.072;22.192;2023-05-02T00:42:10;99929.25;;;11.79;80.91
68634;BME280;55625;47.072;22.192;2023-05-02T00:44:36;99932.44;;;11.81;80.57
68634;BME280;55625;47.072;22.192;2023-05-02T00:47:02;99944.50;;;11.85;79.93
68634;BME280;55625;47.072;22.192;2023-05-02T00:49:29;99936.75;;;11.86;80.30
68634;BME280;55625;47.072;22.192;2023-05-02T00:51:55;99942.19;;;11.93;78.94
68634;BME280;55625;47.072;22.192;2023-05-02T00:54:22;99940.94;;;11.94;79.12
68634;BME280;55625;47.072;22.192;2023-05-02T00:56:48;99934.91;;;11.92;79.44
68634;BME280;55625;47.072;22.192;2023-05-02T00:59:15;99950.06;;;11.89;78.50
68634;BME280;55625;47.072;22.192;2023-05-02T01:13:30;99950.19;;;11.85;78.01
68634;BME280;55625;47.072;22.192;2023-05-02T01:15:58;99952.69;;;11.83;77.61
68634;BME280;55625;47.072;22.192;2023-05-02T01:18:29;99951.78;;;11.86;77.01
68634;BME280;55625;47.072;22.192;2023-05-02T01:21:02;99952.22;;;11.85;77.74
68634;BME280;55625;47.072;22.192;2023-05-02T01:29:17;99946.97;;;11.58;80.24
68634;BME280;55625;47.072;22.192;2023-05-02T01:31:48;99950.50;;;11.49;81.00
68634;BME280;55625;47.072;22.192;2023-05-02T01:34:18;99948.34;;;11.40;81.19
68634;BME280;55625;47.072;22.192;2023-05-02T01:36:47;99945.84;;;11.30;81.75
68634;BME280;55625;47.072;22.192;2023-05-02T01:39:23;99949.47;;;11.30;80.88
68634;BME280;55625;47.072;22.192;2023-05-02T01:41:51;99947.09;;;11.29;81.68
68634;BME280;55625;47.072;22.192;2023-05-02T01:44:20;99949.34;;;11.21;81.23
68634;BME280;55625;47.072;22.192;2023-05-02T01:46:47;99947.53;;;11.14;82.26
68634;BME280;55625;47.072;22.192;2023-05-02T01:49:15;99947.75;;;11.07;81.83
68634;BME280;55625;47.072;22.192;2023-05-02T01:51:47;99947.88;;;11.16;79.57
68634;BME280;55625;47.072;22.192;2023-05-02T01:54:16;99945.03;;;11.29;77.81
68634;BME280;55625;47.072;22.192;2023-05-02T01:56:43;99939.72;;;11.44;77.47
68634;BME280;55625;47.072;22.192;2023-05-02T01:59:29;99942.00;;;11.49;76.99
68634;BME280;55625;47.072;22.192;2023-05-02T02:01:56;99939.72;;;11.57;76.26
68634;BME280;55625;47.072;22.192;2023-05-02T02:04:24;99941.06;;;11.52;76.10
68634;BME280;55625;47.072;22.192;2023-05-02T02:07:07;99940.72;;;11.88;72.66
68634;BME280;55625;47.072;22.192;2023-05-02T02:09:34;99934.06;;;12.51;69.41
68634;BME280;55625;47.072;22.192;2023-05-02T02:12:27;99936.59;;;12.71;69.25
68634;BME280;55625;47.072;22.192;2023-05-02T02:15:04;99929.56;;;12.85;68.08
68634;BME280;55625;47.072;22.192;2023-05-02T02:17:38;99935.16;;;12.88;68.16
68634;BME280;55625;47.072;22.192;2023-05-02T02:20:08;99938.72;;;12.80;69.17
68634;BME280;55625;47.072;22.192;2023-05-02T02:22:38;99942.16;;;12.74;68.22
68634;BME280;55625;47.072;22.192;2023-05-02T02:25:11;99939.91;;;12.69;69.45
68634;BME280;55625;47.072;22.192;2023-05-02T02:27:38;99942.69;;;12.60;70.85
68634;BME280;55625;47.072;22.192;2023-05-02T02:30:06;99944.19;;;12.52;70.91
68634;BME280;55625;47.072;22.192;2023-05-02T02:32:32;99936.25;;;12.47;71.47
68634;BME280;55625;47.072;22.192;2023-05-02T02:34:59;99934.00;;;12.42;70.96
68634;BME280;55625;47.072;22.192;2023-05-02T02:37:36;99940.28;;;12.37;71.61
68634;BME280;55625;47.072;22.192;2023-05-02T02:40:27;99944.63;;;12.29;73.42
68634;BME280;55625;47.072;22.192;2023-05-02T02:46:01;99951.19;;;11.91;76.61
68634;BME280;55625;47.072;22.192;2023-05-02T02:51:52;99948.91;;;11.61;79.63
68634;BME280;55625;47.072;22.192;2023-05-02T02:54:30;99958.38;;;11.45;81.38
68634;BME280;55625;47.072;22.192;2023-05-02T02:57:39;99951.78;;;11.35;81.75
68634;BME280;55625;47.072;22.192;2023-05-02T03:00:17;99955.94;;;11.31;79.70
68634;BME280;55625;47.072;22.192;2023-05-02T03:02:46;99953.78;;;11.22;80.08
68634;BME280;55625;47.072;22.192;2023-05-02T03:05:13;99960.47;;;11.15;80.04
68634;BME280;55625;47.072;22.192;2023-05-02T03:07:39;99963.44;;;11.12;80.79
68634;BME280;55625;47.072;22.192;2023-05-02T03:10:06;99969.69;;;11.07;81.91
68634;BME280;55625;47.072;22.192;2023-05-02T03:12:32;99969.69;;;11.07;82.20
68634;BME280;55625;47.072;22.192;2023-05-02T03:18:09;99971.69;;;10.94;84.15
68634;BME280;55625;47.072;22.192;2023-05-02T03:20:35;99973.72;;;10.93;83.52
68634;BME280;55625;47.072;22.192;2023-05-02T03:23:01;99974.97;;;10.92;82.88
68634;BME280;55625;47.072;22.192;2023-05-02T03:25:27;99983.94;;;10.91;82.51
68634;BME280;55625;47.072;22.192;2023-05-02T03:27:56;99986.22;;;10.96;81.60
68634;BME280;55625;47.072;22.192;2023-05-02T03:30:22;99989.16;;;10.92;81.25
68634;BME280;55625;47.072;22.192;2023-05-02T03:32:48;99990.88;;;10.89;81.26
68634;BME280;55625;47.072;22.192;2023-05-02T03:35:14;99988.94;;;10.86;81.40
68634;BME280;55625;47.072;22.192;2023-05-02T03:37:40;99994.50;;;10.90;80.70
68634;BME280;55625;47.072;22.192;2023-05-02T03:40:07;99995.97;;;10.95;80.07
68634;BME280;55625;47.072;22.192;2023-05-02T03:42:34;99997.03;;;11.01;79.77
68634;BME280;55625;47.072;22.192;2023-05-02T03:45:07;100005.91;;;11.03;80.04
68634;BME280;55625;47.072;22.192;2023-05-02T03:47:33;100011.84;;;11.08;79.78
68634;BME280;55625;47.072;22.192;2023-05-02T03:50:00;100008.38;;;11.01;80.22
68634;BME280;55625;47.072;22.192;2023-05-02T03:52:26;100003.94;;;11.00;80.55
68634;BME280;55625;47.072;22.192;2023-05-02T03:54:53;100012.72;;;11.05;80.42
68634;BME280;55625;47.072;22.192;2023-05-02T03:57:18;100002.06;;;11.09;80.93
68634;BME280;55625;47.072;22.192;2023-05-02T03:59:45;100001.84;;;11.16;80.06
68634;BME280;55625;47.072;22.192;2023-05-02T04:02:12;99997.09;;;11.26;79.87
68634;BME280;55625;47.072;22.192;2023-05-02T04:04:38;99995.72;;;11.31;79.60
68634;BME280;55625;47.072;22.192;2023-05-02T04:07:05;100005.53;;;11.42;79.75
68634;BME280;55625;47.072;22.192;2023-05-02T04:09:33;99998.16;;;11.58;78.45
68634;BME280;55625;47.072;22.192;2023-05-02T04:11:59;100001.47;;;11.69;78.88
68634;BME280;55625;47.072;22.192;2023-05-02T04:14:25;99991.44;;;11.77;78.05
68634;BME280;55625;47.072;22.192;2023-05-02T04:16:51;99999.19;;;11.89;77.50
68634;BME280;55625;47.072;22.192;2023-05-02T04:19:17;100000.13;;;11.99;76.63
68634;BME280;55625;47.072;22.192;2023-05-02T04:21:44;99989.75;;;12.05;75.94
68634;BME280;55625;47.072;22.192;2023-05-02T04:24:10;99997.34;;;12.21;75.62
68634;BME280;55625;47.072;22.192;2023-05-02T04:26:36;100002.56;;;12.22;75.01
68634;BME280;55625;47.072;22.192;2023-05-02T04:29:03;99993.69;;;12.33;74.54
68634;BME280;55625;47.072;22.192;2023-05-02T04:31:30;99992.44;;;12.34;75.27
68634;BME280;55625;47.072;22.192;2023-05-02T04:33:57;99999.00;;;12.43;74.58
68634;BME280;55625;47.072;22.192;2023-05-02T04:36:24;99992.72;;;12.49;74.31
68634;BME280;55625;47.072;22.192;2023-05-02T04:38:53;99994.19;;;12.53;74.81
68634;BME280;55625;47.072;22.192;2023-05-02T04:41:19;100001.63;;;12.72;72.86
68634;BME280;55625;47.072;22.192;2023-05-02T04:43:46;99995.81;;;12.76;72.21
68634;BME280;55625;47.072;22.192;2023-05-02T04:46:11;100004.69;;;12.78;72.93
68634;BME280;55625;47.072;22.192;2023-05-02T04:48:37;99999.78;;;12.79;72.67
68634;BME280;55625;47.072;22.192;2023-05-02T04:51:10;100003.63;;;12.85;71.64
68634;BME280;55625;47.072;22.192;2023-05-02T04:53:36;99983.28;;;12.73;72.30
68634;BME280;55625;47.072;22.192;2023-05-02T04:56:02;99991.50;;;12.71;72.86
68634;BME280;55625;47.072;22.192;2023-05-02T04:58:28;99998.47;;;12.70;72.67
68634;BME280;55625;47.072;22.192;2023-05-02T05:00:54;100001.16;;;12.74;73.23
68634;BME280;55625;47.072;22.192;2023-05-02T05:03:20;99994.28;;;12.84;72.45
68634;BME280;55625;47.072;22.192;2023-05-02T05:05:46;99994.91;;;13.01;71.52
68634;BME280;55625;47.072;22.192;2023-05-02T05:08:12;99993.69;;;13.11;71.26
68634;BME280;55625;47.072;22.192;2023-05-02T05:10:38;99992.53;;;13.21;71.97
68634;BME280;55625;47.072;22.192;2023-05-02T05:13:05;99997.63;;;13.26;71.86
68634;BME280;55625;47.072;22.192;2023-05-02T05:15:31;99997.31;;;13.24;71.98
68634;BME280;55625;47.072;22.192;2023-05-02T05:17:57;100002.59;;;13.35;72.05
68634;BME280;55625;47.072;22.192;2023-05-02T05:20:23;99995.19;;;13.47;72.20
68634;BME280;55625;47.072;22.192;2023-05-02T05:22:49;99996.91;;;13.66;70.57
68634;BME280;55625;47.072;22.192;2023-05-02T05:25:15;99997.31;;;13.86;69.67
68634;BME280;55625;47.072;22.192;2023-05-02T05:27:41;99992.09;;;13.94;69.20
68634;BME280;55625;47.072;22.192;2023-05-02T05:30:07;99996.28;;;14.11;69.04
68634;BME280;55625;47.072;22.192;2023-05-02T05:32:34;99999.47;;;14.22;68.96
68634;BME280;55625;47.072;22.192;2023-05-02T05:35:00;100006.50;;;14.40;68.27
68634;BME280;55625;47.072;22.192;2023-05-02T05:37:26;100004.63;;;14.55;69.13
68634;BME280;55625;47.072;22.192;2023-05-02T05:39:52;100004.00;;;14.69;68.07
68634;BME280;55625;47.072;22.192;2023-05-02T05:42:18;100004.03;;;14.87;67.44
68634;BME280;55625;47.072;22.192;2023-05-02T05:44:44;100003.22;;;15.05;66.52
68634;BME280;55625;47.072;22.192;2023-05-02T05:47:10;100009.53;;;15.28;65.68
68634;BME280;55625;47.072;22.192;2023-05-02T05:49:36;100012.72;;;15.30;64.55
68634;BME280;55625;47.072;22.192;2023-05-02T05:52:02;100009.19;;;15.44;64.72
68634;BME280;55625;47.072;22.192;2023-05-02T05:54:27;100011.25;;;15.62;64.75
68634;BME280;55625;47.072;22.192;2023-05-02T05:56:53;100018.19;;;15.79;63.21
68634;BME280;55625;47.072;22.192;2023-05-02T05:59:19;100028.78;;;15.97;63.41
68634;BME280;55625;47.072;22.192;2023-05-02T06:01:45;100022.63;;;16.13;62.63
68634;BME280;55625;47.072;22.192;2023-05-02T06:04:11;100018.22;;;16.36;60.85
68634;BME280;55625;47.072;22.192;2023-05-02T06:06:37;100020.81;;;16.58;60.31
68634;BME280;55625;47.072;22.192;2023-05-02T06:09:03;100018.41;;;16.80;59.88
68634;BME280;55625;47.072;22.192;2023-05-02T06:11:29;100025.13;;;17.01;60.98
68634;BME280;55625;47.072;22.192;2023-05-02T06:13:55;100022.09;;;17.19;59.98
68634;BME280;55625;47.072;22.192;2023-05-02T06:16:20;100013.19;;;17.32;59.93
68634;BME280;55625;47.072;22.192;2023-05-02T06:18:49;100020.41;;;17.42;57.46
68634;BME280;55625;47.072;22.192;2023-05-02T06:21:15;100016.97;;;17.53;58.00
68634;BME280;55625;47.072;22.192;2023-05-02T06:23:41;100017.47;;;17.51;56.57
68634;BME280;55625;47.072;22.192;2023-05-02T06:26:06;100008.06;;;17.65;57.67
68634;BME280;55625;47.072;22.192;2023-05-02T06:28:32;100005.78;;;17.69;54.34
68634;BME280;55625;47.072;22.192;2023-05-02T06:31:04;100006.28;;;17.83;54.00
68634;BME280;55625;47.072;22.192;2023-05-02T06:33:31;100014.88;;;17.97;54.70
68634;BME280;55625;47.072;22.192;2023-05-02T06:35:58;100011.78;;;18.16;53.78
68634;BME280;55625;47.072;22.192;2023-05-02T06:38:24;100010.03;;;18.39;53.29
68634;BME280;55625;47.072;22.192;2023-05-02T06:40:51;100010.63;;;18.63;49.98
68634;BME280;55625;47.072;22.192;2023-05-02T06:43:17;100008.84;;;18.86;51.08
68634;BME280;55625;47.072;22.192;2023-05-02T06:45:44;100010.75;;;18.95;49.49
68634;BME280;55625;47.072;22.192;2023-05-02T06:48:10;100004.16;;;19.09;47.58
68634;BME280;55625;47.072;22.192;2023-05-02T06:50:36;100003.59;;;19.31;46.79
68634;BME280;55625;47.072;22.192;2023-05-02T06:53:04;99997.50;;;19.49;47.52
68634;BME280;55625;47.072;22.192;2023-05-02T06:55:30;100004.50;;;19.68;48.35
68634;BME280;55625;47.072;22.192;2023-05-02T06:57:56;99995.84;;;19.94;47.08
68634;BME280;55625;47.072;22.192;2023-05-02T07:00:22;99997.75;;;20.08;46.75
68634;BME280;55625;47.072;22.192;2023-05-02T07:02:48;100002.38;;;20.32;45.95
68634;BME280;55625;47.072;22.192;2023-05-02T07:05:15;99995.97;;;20.54;46.66
68634;BME280;55625;47.072;22.192;2023-05-02T07:07:42;100001.06;;;20.75;40.55
68634;BME280;55625;47.072;22.192;2023-05-02T07:10:09;99996.16;;;20.93;41.44
68634;BME280;55625;47.072;22.192;2023-05-02T07:12:35;99996.28;;;21.26;39.72
68634;BME280;55625;47.072;22.192;2023-05-02T07:15:01;100000.00;;;21.49;38.90
68634;BME280;55625;47.072;22.192;2023-05-02T07:17:27;99999.47;;;21.51;38.60
68634;BME280;55625;47.072;22.192;2023-05-02T07:19:53;100006.81;;;21.63;39.53
68634;BME280;55625;47.072;22.192;2023-05-02T07:22:20;99995.81;;;21.78;38.37
68634;BME280;55625;47.072;22.192;2023-05-02T07:24:46;99999.22;;;21.93;38.07
68634;BME280;55625;47.072;22.192;2023-05-02T07:27:12;99991.06;;;21.97;37.44
68634;BME280;55625;47.072;22.192;2023-05-02T07:29:38;99997.91;;;22.17;36.76
68634;BME280;55625;47.072;22.192;2023-05-02T07:32:04;99992.38;;;22.24;36.79
68634;BME280;55625;47.072;22.192;2023-05-02T07:34:31;99993.72;;;22.18;36.19
68634;BME280;55625;47.072;22.192;2023-05-02T07:36:57;99986.34;;;22.17;36.64
68634;BME280;55625;47.072;22.192;2023-05-02T07:39:26;99993.69;;;22.23;37.13
68634;BME280;55625;47.072;22.192;2023-05-02T07:41:53;99986.06;;;22.37;36.93
68634;BME280;55625;47.072;22.192;2023-05-02T07:44:20;99987.56;;;22.55;35.66
68634;BME280;55625;47.072;22.192;2023-05-02T07:46:46;99993.03;;;22.75;37.15
68634;BME280;55625;47.072;22.192;2023-05-02T07:49:12;100001.13;;;22.99;36.80
68634;BME280;55625;47.072;22.192;2023-05-02T07:51:38;99991.13;;;23.00;35.04
68634;BME280;55625;47.072;22.192;2023-05-02T07:54:18;100000.75;;;23.19;35.90
68634;BME280;55625;47.072;22.192;2023-05-02T07:56:44;99994.31;;;23.38;35.27
68634;BME280;55625;47.072;22.192;2023-05-02T07:59:10;99994.31;;;23.38;34.07
68634;BME280;55625;47.072;22.192;2023-05-02T08:01:39;99998.16;;;23.51;35.54
68634;BME280;55625;47.072;22.192;2023-05-02T08:04:05;100003.88;;;23.68;34.68
68634;BME280;55625;47.072;22.192;2023-05-02T08:06:31;99993.81;;;23.75;34.73
68634;BME280;55625;47.072;22.192;2023-05-02T08:08:58;100004.88;;;23.76;32.99
68634;BME280;55625;47.072;22.192;2023-05-02T08:11:24;99999.31;;;23.78;32.44
68634;BME280;55625;47.072;22.192;2023-05-02T08:13:53;100008.22;;;23.86;34.29
68634;BME280;55625;47.072;22.192;2023-05-02T08:16:20;100004.09;;;24.06;34.33
68634;BME280;55625;47.072;22.192;2023-05-02T08:18:46;100001.03;;;24.28;34.13
68634;BME280;55625;47.072;22.192;2023-05-02T08:21:13;99999.69;;;24.29;33.84
68634;BME280;55625;47.072;22.192;2023-05-02T08:23:40;99998.69;;;24.51;34.40
68634;BME280;55625;47.072;22.192;2023-05-02T08:26:06;99999.47;;;24.52;33.62
68634;BME280;55625;47.072;22.192;2023-05-02T08:28:32;99998.00;;;24.64;34.47
68634;BME280;55625;47.072;22.192;2023-05-02T08:30:58;99998.31;;;24.79;34.15
68634;BME280;55625;47.072;22.192;2023-05-02T08:33:24;99998.13;;;24.96;33.81
68634;BME280;55625;47.072;22.192;2023-05-02T08:35:50;99997.09;;;25.18;32.79
68634;BME280;55625;47.072;22.192;2023-05-02T08:38:17;100001.00;;;25.20;31.58
68634;BME280;55625;47.072;22.192;2023-05-02T08:40:44;99997.56;;;24.97;32.87
68634;BME280;55625;47.072;22.192;2023-05-02T08:43:11;99995.41;;;25.03;34.41
68634;BME280;55625;47.072;22.192;2023-05-02T08:45:43;99994.19;;;25.18;34.18
68634;BME280;55625;47.072;22.192;2023-05-02T08:48:13;99995.97;;;25.39;32.51
68634;BME280;55625;47.072;22.192;2023-05-02T08:50:44;99991.66;;;25.46;32.62
68634;BME280;55625;47.072;22.192;2023-05-02T08:53:13;99986.31;;;25.50;32.44
68634;BME280;55625;47.072;22.192;2023-05-02T08:55:41;99986.34;;;25.63;34.30
68634;BME280;55625;47.072;22.192;2023-05-02T08:58:08;99986.56;;;25.84;32.21
68634;BME280;55625;47.072;22.192;2023-05-02T09:00:41;100000.56;;;25.86;30.11
68634;BME280;55625;47.072;22.192;2023-05-02T09:05:55;99990.91;;;25.78;29.78
68634;BME280;55625;47.072;22.192;2023-05-02T09:08:25;99984.22;;;25.83;27.93
68634;BME280;55625;47.072;22.192;2023-05-02T09:10:51;99985.78;;;25.84;30.54
68634;BME280;55625;47.072;22.192;2023-05-02T09:13:38;99974.91;;;26.03;29.99
68634;BME280;55625;47.072;22.192;2023-05-02T09:18:51;99979.84;;;26.21;27.54
68634;BME280;55625;47.072;22.192;2023-05-02T09:21:22;99975.34;;;26.20;27.54
68634;BME280;55625;47.072;22.192;2023-05-02T09:23:56;99972.66;;;26.09;28.02
68634;BME280;55625;47.072;22.192;2023-05-02T09:29:03;99968.53;;;26.18;28.65
68634;BME280;55625;47.072;22.192;2023-05-02T09:31:31;99966.56;;;26.39;28.22
68634;BME280;55625;47.072;22.192;2023-05-02T09:34:15;99966.63;;;26.20;27.11
68634;BME280;55625;47.072;22.192;2023-05-02T09:36:47;99966.25;;;26.43;27.33
68634;BME280;55625;47.072;22.192;2023-05-02T09:39:27;99969.13;;;26.56;27.50
68634;BME280;55625;47.072;22.192;2023-05-02T09:41:57;99962.78;;;26.71;25.94
68634;BME280;55625;47.072;22.192;2023-05-02T09:44:25;99967.16;;;26.64;26.64
68634;BME280;55625;47.072;22.192;2023-05-02T09:46:55;99968.81;;;26.59;25.44
68634;BME280;55625;47.072;22.192;2023-05-02T09:49:44;99965.81;;;26.65;25.29
68634;BME280;55625;47.072;22.192;2023-05-02T09:52:16;99962.19;;;26.85;27.50
68634;BME280;55625;47.072;22.192;2023-05-02T09:54:42;99958.47;;;27.11;28.82
68634;BME280;55625;47.072;22.192;2023-05-02T09:57:08;99961.09;;;27.36;29.00
68634;BME280;55625;47.072;22.192;2023-05-02T09:59:35;99959.88;;;27.31;28.07
68634;BME280;55625;47.072;22.192;2023-05-02T10:02:03;99958.19;;;27.36;28.27
68634;BME280;55625;47.072;22.192;2023-05-02T10:04:31;99960.47;;;27.50;27.65
68634;BME280;55625;47.072;22.192;2023-05-02T10:06:58;99955.56;;;27.45;28.14
68634;BME280;55625;47.072;22.192;2023-05-02T10:09:25;99941.47;;;27.36;25.63
68634;BME280;55625;47.072;22.192;2023-05-02T10:11:55;99939.47;;;27.31;26.52
68634;BME280;55625;47.072;22.192;2023-05-02T10:14:23;99946.78;;;27.25;25.16
68634;BME280;55625;47.072;22.192;2023-05-02T10:17:13;99943.13;;;27.11;23.41
68634;BME280;55625;47.072;22.192;2023-05-02T10:19:56;99945.09;;;27.29;25.41
68634;BME280;55625;47.072;22.192;2023-05-02T10:22:22;99942.31;;;27.44;27.75
68634;BME280;55625;47.072;22.192;2023-05-02T10:24:49;99935.56;;;27.63;27.21
68634;BME280;55625;47.072;22.192;2023-05-02T10:27:17;99939.03;;;27.27;21.35
68634;BME280;55625;47.072;22.192;2023-05-02T10:29:43;99935.63;;;27.02;23.06
68634;BME280;55625;47.072;22.192;2023-05-02T10:32:10;99934.63;;;27.00;22.25
68634;BME280;55625;47.072;22.192;2023-05-02T10:34:39;99934.16;;;27.09;22.11
68634;BME280;55625;47.072;22.192;2023-05-02T10:37:06;99935.47;;;27.21;23.92
68634;BME280;55625;47.072;22.192;2023-05-02T10:39:32;99929.19;;;27.17;23.65
68634;BME280;55625;47.072;22.192;2023-05-02T10:41:59;99929.84;;;27.23;24.54
68634;BME280;55625;47.072;22.192;2023-05-02T10:44:38;99930.59;;;27.03;23.99
68634;BME280;55625;47.072;22.192;2023-05-02T10:47:26;99932.31;;;27.19;27.97
68634;BME280;55625;47.072;22.192;2023-05-02T10:50:00;99932.69;;;27.15;24.41
68634;BME280;55625;47.072;22.192;2023-05-02T11:00:31;99930.81;;;27.05;26.53
68634;BME280;55625;47.072;22.192;2023-05-02T11:02:58;99934.19;;;26.82;27.06
68634;BME280;55625;47.072;22.192;2023-05-02T11:05:26;99929.91;;;26.97;25.25
68634;BME280;55625;47.072;22.192;2023-05-02T11:10:40;99932.94;;;27.04;26.98
68634;BME280;55625;47.072;22.192;2023-05-02T11:13:06;99925.91;;;26.73;26.77
68634;BME280;55625;47.072;22.192;2023-05-02T11:18:05;99931.47;;;26.31;28.02
68634;BME280;55625;47.072;22.192;2023-05-02T11:20:33;99920.09;;;26.73;28.62
68634;BME280;55625;47.072;22.192;2023-05-02T11:23:20;99927.34;;;27.06;26.96
68634;BME280;55625;47.072;22.192;2023-05-02T11:25:51;99917.66;;;26.51;25.73
68634;BME280;55625;47.072;22.192;2023-05-02T11:28:44;99916.06;;;26.76;26.71
68634;BME280;55625;47.072;22.192;2023-05-02T11:33:58;99915.25;;;26.23;26.13
68634;BME280;55625;47.072;22.192;2023-05-02T11:36:28;99906.56;;;26.36;27.71
68634;BME280;55625;47.072;22.192;2023-05-02T11:38:54;99898.03;;;26.51;26.13
68634;BME280;55625;47.072;22.192;2023-05-02T11:41:21;99909.38;;;26.42;27.32
68634;BME280;55625;47.072;22.192;2023-05-02T11:43:46;99907.09;;;26.61;26.41
68634;BME280;55625;47.072;22.192;2023-05-02T11:46:12;99903.84;;;26.25;25.73
68634;BME280;55625;47.072;22.192;2023-05-02T11:48:38;99905.88;;;26.04;26.25
68634;BME280;55625;47.072;22.192;2023-05-02T11:51:06;99898.56;;;25.97;26.54
68634;BME280;55625;47.072;22.192;2023-05-02T11:53:32;99899.72;;;26.07;26.29
68634;BME280;55625;47.072;22.192;2023-05-02T11:56:01;99892.47;;;25.68;26.78
68634;BME280;55625;47.072;22.192;2023-05-02T11:58:30;99898.78;;;25.54;28.66
68634;BME280;55625;47.072;22.192;2023-05-02T12:00:58;99900.34;;;26.00;27.89
68634;BME280;55625;47.072;22.192;2023-05-02T12:03:31;99885.84;;;26.13;27.61
68634;BME280;55625;47.072;22.192;2023-05-02T12:06:11;99883.72;;;26.14;26.87
68634;BME280;55625;47.072;22.192;2023-05-02T12:08:38;99898.22;;;26.00;25.88
68634;BME280;55625;47.072;22.192;2023-05-02T12:11:04;99884.72;;;26.16;25.32
68634;BME280;55625;47.072;22.192;2023-05-02T12:13:31;99881.13;;;26.23;28.20
68634;BME280;55625;47.072;22.192;2023-05-02T12:15:57;99886.19;;;26.36;27.94
68634;BME280;55625;47.072;22.192;2023-05-02T12:18:24;99880.09;;;26.60;28.97
68634;BME280;55625;47.072;22.192;2023-05-02T12:20:52;99876.75;;;26.70;27.21
68634;BME280;55625;47.072;22.192;2023-05-02T12:23:21;99877.00;;;26.45;26.18
68634;BME280;55625;47.072;22.192;2023-05-02T12:25:48;99870.66;;;26.34;28.29
68634;BME280;55625;47.072;22.192;2023-05-02T12:28:16;99874.97;;;26.27;27.61
68634;BME280;55625;47.072;22.192;2023-05-02T12:30:47;99874.41;;;26.28;26.54
68634;BME280;55625;47.072;22.192;2023-05-02T12:33:13;99867.91;;;26.22;28.21
68634;BME280;55625;47.072;22.192;2023-05-02T12:35:39;99864.69;;;26.13;28.52
68634;BME280;55625;47.072;22.192;2023-05-02T12:38:19;99865.69;;;26.15;27.76
68634;BME280;55625;47.072;22.192;2023-05-02T12:40:52;99871.94;;;26.19;28.50
68634;BME280;55625;47.072;22.192;2023-05-02T12:43:19;99863.47;;;26.35;27.66
68634;BME280;55625;47.072;22.192;2023-05-02T12:45:47;99861.88;;;26.47;27.19
68634;BME280;55625;47.072;22.192;2023-05-02T12:48:26;99859.09;;;26.41;27.54
68634;BME280;55625;47.072;22.192;2023-05-02T12:50:53;99857.53;;;26.40;26.61
68634;BME280;55625;47.072;22.192;2023-05-02T12:53:43;99863.69;;;26.10;26.19
68634;BME280;55625;47.072;22.192;2023-05-02T12:56:10;99855.06;;;26.05;25.34
68634;BME280;55625;47.072;22.192;2023-05-02T12:58:46;99855.72;;;25.84;24.89
68634;BME280;55625;47.072;22.192;2023-05-02T13:01:14;99854.44;;;25.66;27.49
68634;BME280;55625;47.072;22.192;2023-05-02T13:03:41;99857.50;;;25.42;25.36
68634;BME280;55625;47.072;22.192;2023-05-02T13:06:07;99851.16;;;25.57;27.31
68634;BME280;55625;47.072;22.192;2023-05-02T13:08:34;99843.44;;;25.59;25.47
68634;BME280;55625;47.072;22.192;2023-05-02T13:11:02;99843.25;;;25.71;27.34
68634;BME280;55625;47.072;22.192;2023-05-02T13:13:29;99850.00;;;25.79;26.54
68634;BME280;55625;47.072;22.192;2023-05-02T13:15:55;99846.13;;;25.57;26.69
68634;BME280;55625;47.072;22.192;2023-05-02T13:18:21;99856.28;;;25.51;27.11
68634;BME280;55625;47.072;22.192;2023-05-02T13:20:47;99848.81;;;25.55;25.69
68634;BME280;55625;47.072;22.192;2023-05-02T13:23:13;99848.59;;;25.53;28.69
68634;BME280;55625;47.072;22.192;2023-05-02T13:25:41;99844.38;;;25.67;29.35
68634;BME280;55625;47.072;22.192;2023-05-02T13:28:07;99836.19;;;25.66;27.84
68634;BME280;55625;47.072;22.192;2023-05-02T13:30:32;99831.41;;;25.68;28.58
68634;BME280;55625;47.072;22.192;2023-05-02T13:32:58;99831.88;;;25.86;29.11
68634;BME280;55625;47.072;22.192;2023-05-02T13:35:25;99836.38;;;25.87;28.15
68634;BME280;55625;47.072;22.192;2023-05-02T13:37:51;99832.75;;;25.67;28.43
68634;BME280;55625;47.072;22.192;2023-05-02T13:40:17;99837.09;;;25.29;26.82
68634;BME280;55625;47.072;22.192;2023-05-02T13:42:43;99844.38;;;25.03;27.26
68634;BME280;55625;47.072;22.192;2023-05-02T13:45:09;99836.22;;;25.34;27.28